Terminal Aerodrome Forecast
Issued by NWS Goodland, KS

Home | Current Version | Previous Version | Text Only | Print | Product List | Glossary On
Versions: 1 2 3 4 5 6 7 8 9 10 11 12 13 14 15 16
704
FTUS43 KGLD 101449 AAC
TAFGLD
TAF AMD
KGLD 101449Z 1015/1112 17009KT 3/4SM BR OVC003
      TEMPO 1015/1017 3SM BR SCT003
     FM101700 20010KT P6SM SCT180
     FM102200 18011KT P6SM BKN150
     FM110200 21008KT P6SM BKN150
     FM110500 25008KT P6SM SCT150 SCT250
     FM110800 30007KT P6SM BKN100
     FM111100 32009KT P6SM BKN090 WS015/35030KT=

USA.gov is the U.S. government's official web portal to all federal, state and local government web resources and services.